Time,TemperatureF,DewpointF,PressureIn,WindDirection,WindDirectionDegrees,WindSpeedMPH,WindSpeedGustMPH,Humidity,HourlyPrecipIn,Conditions,Clouds,dailyrainin,SoftwareType,DateUTC
2013-03-16 00:00:00,30.2,30.2,28.74,NNE,13,5.0,7.0,100,0.00,,OVC017,0.00,VWS V14.01,2013-03-16 05:00:00,
2013-03-16 00:05:00,30.1,30.1,28.75,NNE,18,6.0,8.0,100,0.00,,OVC017,0.00,VWS V14.01,2013-03-16 05:05:00,
2013-03-16 00:10:00,30.0,30.0,28.75,NNE,25,3.0,3.0,100,0.00,,OVC017,0.00,VWS V14.01,2013-03-16 05:10:00,
2013-03-16 00:15:00,29.9,29.9,28.74,WNW,299,0.0,4.0,100,0.00,,OVC017,0.00,VWS V14.01,2013-03-16 05:15:00,
2013-03-16 00:20:00,29.9,29.9,28.74,NE,37,0.0,2.0,100,0.00,,OVC017,0.00,VWS V14.01,2013-03-16 05:20:00,
2013-03-16 00:25:00,29.9,29.9,28.74,NNE,19,3.0,9.0,100,0.00,,OVC017,0.00,VWS V14.01,2013-03-16 05:25:00,
2013-03-16 00:30:00,29.9,29.9,28.74,NNE,25,4.0,8.0,100,0.00,,OVC017,0.00,VWS V14.01,2013-03-16 05:30:00,
2013-03-16 00:35:00,29.8,29.8,28.74,NNE,20,3.0,8.0,100,0.00,,OVC019,0.00,VWS V14.01,2013-03-16 05:35:00,
2013-03-16 00:40:00,29.7,29.7,28.74,NNE,24,4.0,5.0,100,0.00,,OVC019,0.00,VWS V14.01,2013-03-16 05:40:00,
2013-03-16 00:45:00,29.6,29.6,28.74,NNE,17,6.0,7.0,100,0.00,,OVC019,0.00,VWS V14.01,2013-03-16 05:45:00,
2013-03-16 00:50:00,29.5,29.5,28.74,NNE,26,5.0,7.0,100,0.00,,OVC019,0.00,VWS V14.01,2013-03-16 05:50:00,
2013-03-16 00:55:00,29.4,29.4,28.74,East,85,1.0,7.0,100,0.00,,OVC019,0.00,VWS V14.01,2013-03-16 05:55:00,
2013-03-16 01:00:00,29.3,29.3,28.74,NNE,31,2.0,4.0,100,0.00,,OVC019,0.00,VWS V14.01,2013-03-16 06:00:00,
2013-03-16 01:05:00,29.3,29.3,28.74,NNE,24,3.0,6.0,100,0.00,,OVC019,0.00,VWS V14.01,2013-03-16 06:05:00,
2013-03-16 01:10:00,29.3,29.3,28.73,NE,44,1.0,4.0,100,0.00,,OVC019,0.00,VWS V14.01,2013-03-16 06:10:00,
2013-03-16 01:15:00,29.2,29.2,28.73,NNE,25,4.0,6.0,100,0.00,,OVC019,0.00,VWS V14.01,2013-03-16 06:15:00,
2013-03-16 01:20:00,29.2,29.2,28.73,ENE,76,1.0,2.0,100,0.00,,OVC019,0.00,VWS V14.01,2013-03-16 06:20:00,
2013-03-16 01:25:00,29.1,29.1,28.73,North,10,3.0,5.0,100,0.00,,OVC019,0.00,VWS V14.01,2013-03-16 06:25:00,
2013-03-16 01:30:00,29.0,29.0,28.73,NE,42,1.0,4.0,100,0.00,,OVC019,0.00,VWS V14.01,2013-03-16 06:30:00,
2013-03-16 01:35:00,28.9,28.9,28.73,North,0,2.0,6.0,100,0.00,,OVC015,0.00,VWS V14.01,2013-03-16 06:35:00,
2013-03-16 01:40:00,28.9,28.9,28.74,North,3,3.0,6.0,100,0.00,,OVC015,0.00,VWS V14.01,2013-03-16 06:40:00,
2013-03-16 01:45:00,28.8,28.8,28.74,NNE,25,2.0,9.0,100,0.00,,OVC015,0.00,VWS V14.01,2013-03-16 06:45:00,
2013-03-16 01:50:00,28.7,28.7,28.74,NE,37,0.0,3.0,100,0.00,,OVC014,0.00,VWS V14.01,2013-03-16 06:50:00,
2013-03-16 01:55:00,28.6,28.6,28.74,NNE,21,1.0,5.0,100,0.00,,OVC014,0.00,VWS V14.01,2013-03-16 06:55:00,
2013-03-16 02:00:00,28.6,28.6,28.73,NNE,12,2.0,4.0,100,0.00,,OVC014,0.00,VWS V14.01,2013-03-16 07:00:00,
2013-03-16 02:05:00,28.6,28.6,28.73,North,9,1.0,5.0,100,0.00,,OVC014,0.00,VWS V14.01,2013-03-16 07:05:00,
2013-03-16 02:10:00,28.5,28.5,28.73,NE,47,0.0,2.0,100,0.00,,OVC014,0.00,VWS V14.01,2013-03-16 07:10:00,
2013-03-16 02:15:00,28.5,28.5,28.72,SE,134,0.0,5.0,100,0.00,,OVC014,0.00,VWS V14.01,2013-03-16 07:15:00,
2013-03-16 02:20:00,28.5,28.5,28.72,NE,55,2.0,3.0,100,0.00,,OVC014,0.00,VWS V14.01,2013-03-16 07:20:00,
2013-03-16 02:25:00,28.5,28.5,28.73,NE,40,2.0,5.0,100,0.00,,OVC014,0.00,VWS V14.01,2013-03-16 07:25:00,
2013-03-16 02:30:00,28.3,28.3,28.73,NNE,32,2.0,3.0,100,0.00,,OVC014,0.00,VWS V14.01,2013-03-16 07:30:00,
2013-03-16 02:35:00,28.3,28.3,28.74,NNE,16,7.0,8.0,100,0.00,,OVC012,0.00,VWS V14.01,2013-03-16 07:35:00,
2013-03-16 02:40:00,28.2,28.2,28.74,NNE,25,5.0,5.0,100,0.00,,OVC012,0.00,VWS V14.01,2013-03-16 07:40:00,
2013-03-16 02:45:00,28.1,28.1,28.74,NNE,19,5.0,6.0,100,0.00,,OVC012,0.00,VWS V14.01,2013-03-16 07:45:00,
2013-03-16 02:50:00,28.0,28.0,28.74,North,11,5.0,9.0,100,0.00,,OVC012,0.00,VWS V14.01,2013-03-16 07:50:00,
2013-03-16 02:55:00,27.8,27.8,28.74,NNE,19,6.0,9.0,100,0.00,,OVC012,0.00,VWS V14.01,2013-03-16 07:55:00,
2013-03-16 03:00:00,27.8,27.8,28.74,North,9,3.0,5.0,100,0.00,,OVC012,0.00,VWS V14.01,2013-03-16 08:00:00,
2013-03-16 03:05:00,27.8,27.8,28.74,North,8,2.0,5.0,100,0.00,,OVC012,0.00,VWS V14.01,2013-03-16 08:05:00,
2013-03-16 03:10:00,27.8,27.8,28.74,NE,40,2.0,4.0,100,0.00,,OVC012,0.00,VWS V14.01,2013-03-16 08:10:00,
2013-03-16 03:15:00,27.7,27.7,28.74,NNE,15,4.0,8.0,100,0.00,,OVC012,0.00,VWS V14.01,2013-03-16 08:15:00,
2013-03-16 03:20:00,27.7,27.7,28.73,NE,50,2.0,6.0,100,0.00,,OVC012,0.00,VWS V14.01,2013-03-16 08:20:00,
2013-03-16 03:25:00,27.7,27.7,28.73,NE,51,0.0,6.0,100,0.00,,OVC012,0.00,VWS V14.01,2013-03-16 08:25:00,
2013-03-16 03:30:00,27.7,27.7,28.73,NNE,25,1.0,3.0,100,0.00,,OVC012,0.00,VWS V14.01,2013-03-16 08:30:00,
2013-03-16 03:35:00,27.6,27.6,28.73,NE,47,3.0,7.0,100,0.00,,OVC014,0.00,VWS V14.01,2013-03-16 08:35:00,
2013-03-16 03:40:00,27.6,27.6,28.73,NE,42,2.0,2.0,100,0.00,,OVC014,0.00,VWS V14.01,2013-03-16 08:40:00,
2013-03-16 03:45:00,27.6,27.6,28.72,NNE,24,3.0,7.0,100,0.00,,OVC014,0.00,VWS V14.01,2013-03-16 08:45:00,
2013-03-16 03:50:00,27.5,27.5,28.72,NNE,12,1.0,5.0,100,0.00,,OVC014,0.00,VWS V14.01,2013-03-16 08:50:00,
2013-03-16 03:55:00,27.4,27.4,28.72,North,5,5.0,8.0,100,0.00,,OVC014,0.00,VWS V14.01,2013-03-16 08:55:00,
2013-03-16 04:00:00,27.3,27.3,28.72,NNE,24,2.0,5.0,100,0.00,,OVC014,0.00,VWS V14.01,2013-03-16 09:00:00,
2013-03-16 04:05:00,27.3,27.3,28.72,NNE,15,6.0,9.0,100,0.00,,OVC014,0.00,VWS V14.01,2013-03-16 09:05:00,
2013-03-16 04:10:00,27.2,27.2,28.72,NNE,23,5.0,7.0,100,0.00,,OVC014,0.00,VWS V14.01,2013-03-16 09:10:00,
2013-03-16 04:15:00,27.1,27.1,28.72,NNE,17,5.0,8.0,100,0.00,,OVC014,0.00,VWS V14.01,2013-03-16 09:15:00,
2013-03-16 04:20:00,27.1,27.1,28.73,NNE,12,4.0,5.0,100,0.00,,OVC014,0.00,VWS V14.01,2013-03-16 09:20:00,
2013-03-16 04:25:00,27.0,27.0,28.73,NNE,20,7.0,9.0,100,0.00,,OVC014,0.00,VWS V14.01,2013-03-16 09:25:00,
2013-03-16 04:30:00,26.8,26.8,28.74,NNE,15,4.0,9.0,100,0.00,,OVC014,0.00,VWS V14.01,2013-03-16 09:30:00,
2013-03-16 04:35:00,26.7,26.7,28.74,NNE,21,8.0,10.0,100,0.00,,OVC014,0.00,VWS V14.01,2013-03-16 09:35:00,
2013-03-16 04:40:00,26.7,26.7,28.74,NNE,16,5.0,7.0,100,0.00,,OVC014,0.00,VWS V14.01,2013-03-16 09:40:00,
2013-03-16 04:45:00,26.6,26.6,28.74,North,2,3.0,8.0,100,0.00,,OVC014,0.00,VWS V14.01,2013-03-16 09:45:00,
2013-03-16 04:50:00,26.5,26.5,28.74,NNE,17,4.0,6.0,100,0.00,,OVC014,0.00,VWS V14.01,2013-03-16 09:50:00,
2013-03-16 04:55:00,26.4,26.4,28.74,North,10,3.0,10.0,100,0.00,,OVC014,0.00,VWS V14.01,2013-03-16 09:55:00,
2013-03-16 05:00:00,26.2,26.2,28.75,NNE,19,5.0,8.0,100,0.00,,OVC014,0.00,VWS V14.01,2013-03-16 10:00:00,
2013-03-16 05:05:00,26.2,26.2,28.75,NNE,17,5.0,8.0,100,0.00,,OVC014,0.00,VWS V14.01,2013-03-16 10:05:00,
2013-03-16 05:10:00,26.2,26.2,28.75,NNE,15,7.0,7.0,100,0.00,,OVC014,0.00,VWS V14.01,2013-03-16 10:10:00,
2013-03-16 05:15:00,26.0,26.0,28.76,NNE,15,9.0,13.0,100,0.00,,OVC014,0.00,VWS V14.01,2013-03-16 10:15:00,
2013-03-16 05:20:00,25.9,25.9,28.76,NNE,17,9.0,9.0,100,0.00,,OVC014,0.00,VWS V14.01,2013-03-16 10:20:00,
2013-03-16 05:25:00,25.8,25.8,28.76,NNE,16,4.0,9.0,100,0.00,,OVC014,0.00,VWS V14.01,2013-03-16 10:25:00,
2013-03-16 05:30:00,25.7,25.7,28.76,NNE,20,1.0,5.0,100,0.00,,OVC014,0.00,VWS V14.01,2013-03-16 10:30:00,
2013-03-16 05:35:00,25.6,25.6,28.76,NNE,15,6.0,10.0,100,0.00,,OVC010,0.00,VWS V14.01,2013-03-16 10:35:00,
2013-03-16 05:40:00,25.4,25.4,28.76,North,10,7.0,9.0,100,0.00,,OVC010,0.00,VWS V14.01,2013-03-16 10:40:00,
2013-03-16 05:45:00,25.4,25.4,28.76,NNE,19,6.0,9.0,100,0.00,,OVC010,0.00,VWS V14.01,2013-03-16 10:45:00,
2013-03-16 05:50:00,25.5,25.5,28.77,North,4,3.0,7.0,100,0.00,,OVC010,0.00,VWS V14.01,2013-03-16 10:50:00,
2013-03-16 05:55:00,25.4,25.4,28.77,NNE,27,5.0,9.0,100,0.00,,,0.00,VWS V14.01,2013-03-16 10:55:00,
2013-03-16 06:00:00,25.3,25.3,28.78,North,11,2.0,6.0,100,0.00,,,0.00,VWS V14.01,2013-03-16 11:00:00,
2013-03-16 06:05:00,25.3,25.3,28.78,North,4,7.0,9.0,100,0.00,,,0.00,VWS V14.01,2013-03-16 11:05:00,
2013-03-16 06:10:00,25.2,25.2,28.78,NNE,14,4.0,8.0,100,0.00,,,0.00,VWS V14.01,2013-03-16 11:10:00,
2013-03-16 06:15:00,25.1,25.1,28.78,North,0,3.0,8.0,100,0.00,,,0.00,VWS V14.01,2013-03-16 11:15:00,
2013-03-16 06:20:00,24.8,24.8,28.78,NNE,18,8.0,9.0,100,0.00,,,0.00,VWS V14.01,2013-03-16 11:20:00,
2013-03-16 06:25:00,24.7,24.7,28.78,NNE,12,8.0,9.0,100,0.00,,,0.00,VWS V14.01,2013-03-16 11:25:00,
2013-03-16 06:30:00,24.7,24.7,28.79,NNE,16,3.0,5.0,100,0.00,,,0.00,VWS V14.01,2013-03-16 11:30:00,
2013-03-16 06:35:00,24.5,24.5,28.80,North,7,8.0,11.0,100,0.00,,,0.00,VWS V14.01,2013-03-16 11:35:00,
2013-03-16 06:40:00,24.3,24.3,28.80,North,6,3.0,5.0,100,0.00,,,0.00,VWS V14.01,2013-03-16 11:40:00,
2013-03-16 06:45:00,24.0,24.0,28.81,NNE,21,7.0,12.0,100,0.00,,,0.00,VWS V14.01,2013-03-16 11:45:00,
2013-03-16 06:50:00,23.8,23.8,28.80,North,359,5.0,10.0,100,0.00,,,0.00,VWS V14.01,2013-03-16 11:50:00,
2013-03-16 06:55:00,23.5,23.5,28.81,NNE,18,12.0,12.0,100,0.00,,,0.00,VWS V14.01,2013-03-16 11:55:00,
2013-03-16 07:00:00,23.2,23.2,28.81,NNE,13,12.0,12.0,100,0.00,,,0.00,VWS V14.01,2013-03-16 12:00:00,
2013-03-16 07:05:00,22.9,22.9,28.81,North,8,7.0,13.0,100,0.00,,,0.00,VWS V14.01,2013-03-16 12:05:00,
2013-03-16 07:10:00,22.6,22.6,28.81,NNE,18,7.0,10.0,100,0.00,,,0.00,VWS V14.01,2013-03-16 12:10:00,
2013-03-16 07:15:00,22.5,22.5,28.81,NNE,15,8.0,10.0,100,0.00,,,0.00,VWS V14.01,2013-03-16 12:15:00,
2013-03-16 07:20:00,22.3,22.3,28.82,NNW,344,4.0,8.0,100,0.00,,,0.00,VWS V14.01,2013-03-16 12:20:00,
2013-03-16 07:25:00,22.3,22.3,28.82,North,358,7.0,12.0,100,0.00,,,0.00,VWS V14.01,2013-03-16 12:25:00,
2013-03-16 07:30:00,22.1,22.1,28.82,North,7,6.0,7.0,100,0.00,,,0.00,VWS V14.01,2013-03-16 12:30:00,
2013-03-16 07:35:00,22.0,22.0,28.83,NNE,16,9.0,13.0,100,0.00,,,0.00,VWS V14.01,2013-03-16 12:35:00,
2013-03-16 07:40:00,21.9,21.9,28.84,North,3,4.0,4.0,100,0.00,,,0.00,VWS V14.01,2013-03-16 12:40:00,
2013-03-16 07:45:00,21.9,21.9,28.84,North,357,6.0,7.0,100,0.00,,,0.00,VWS V14.01,2013-03-16 12:45:00,
2013-03-16 07:50:00,21.7,21.7,28.85,NNE,17,6.0,8.0,100,0.00,,,0.00,VWS V14.01,2013-03-16 12:50:00,
2013-03-16 07:55:00,21.8,21.8,28.85,NNE,17,6.0,8.0,100,0.00,,OVC008,0.00,VWS V14.01,2013-03-16 12:55:00,
2013-03-16 08:00:00,21.7,21.7,28.85,North,5,5.0,7.0,100,0.00,,OVC008,0.00,VWS V14.01,2013-03-16 13:00:00,
2013-03-16 08:05:00,21.7,21.7,28.85,North,4,3.0,8.0,100,0.00,,OVC008,0.00,VWS V14.01,2013-03-16 13:05:00,
2013-03-16 08:10:00,21.6,21.6,28.85,North,5,3.0,9.0,100,0.00,,OVC008,0.00,VWS V14.01,2013-03-16 13:10:00,
2013-03-16 08:15:00,21.4,21.4,28.85,North,3,4.0,16.0,100,0.00,,OVC008,0.00,VWS V14.01,2013-03-16 13:15:00,
2013-03-16 08:20:00,21.3,21.3,28.85,North,10,9.0,14.0,100,0.00,,OVC008,0.00,VWS V14.01,2013-03-16 13:20:00,
2013-03-16 08:25:00,21.3,21.3,28.85,North,8,7.0,14.0,100,0.00,,OVC008,0.00,VWS V14.01,2013-03-16 13:25:00,
2013-03-16 08:30:00,21.4,21.4,28.86,North,2,11.0,13.0,100,0.00,,OVC008,0.00,VWS V14.01,2013-03-16 13:30:00,
2013-03-16 08:35:00,21.4,21.4,28.86,NNE,16,5.0,13.0,100,0.00,,,0.00,VWS V14.01,2013-03-16 13:35:00,
2013-03-16 08:40:00,21.4,21.4,28.86,North,2,7.0,9.0,100,0.00,,,0.00,VWS V14.01,2013-03-16 13:40:00,
2013-03-16 08:45:00,21.5,21.5,28.87,North,8,6.0,10.0,100,0.00,,,0.00,VWS V14.01,2013-03-16 13:45:00,
2013-03-16 08:50:00,21.7,21.7,28.87,NNE,15,6.0,8.0,100,0.00,,,0.00,VWS V14.01,2013-03-16 13:50:00,
2013-03-16 08:55:00,21.8,21.8,28.88,North,1,3.0,9.0,100,0.00,,,0.00,VWS V14.01,2013-03-16 13:55:00,
2013-03-16 09:00:00,21.9,21.9,28.88,NNE,22,4.0,8.0,100,0.00,,,0.00,VWS V14.01,2013-03-16 14:00:00,
2013-03-16 09:05:00,21.8,21.8,28.89,North,10,6.0,9.0,100,0.00,,,0.00,VWS V14.01,2013-03-16 14:05:00,
2013-03-16 09:10:00,21.9,21.9,28.89,North,358,4.0,5.0,100,0.00,,,0.00,VWS V14.01,2013-03-16 14:10:00,
2013-03-16 09:15:00,21.8,21.8,28.89,NNE,15,3.0,9.0,100,0.00,,,0.00,VWS V14.01,2013-03-16 14:15:00,
2013-03-16 09:20:00,21.7,21.7,28.90,North,355,9.0,11.0,100,0.00,,,0.00,VWS V14.01,2013-03-16 14:20:00,
2013-03-16 09:25:00,21.7,21.7,28.90,NNE,18,3.0,11.0,100,0.00,,,0.00,VWS V14.01,2013-03-16 14:25:00,
2013-03-16 09:30:00,21.6,21.6,28.91,North,8,6.0,10.0,100,0.00,,,0.00,VWS V14.01,2013-03-16 14:30:00,
2013-03-16 09:35:00,21.5,21.5,28.90,North,352,5.0,12.0,100,0.00,,,0.00,VWS V14.01,2013-03-16 14:35:00,
2013-03-16 09:40:00,21.5,21.5,28.91,North,7,6.0,9.0,100,0.00,,,0.00,VWS V14.01,2013-03-16 14:40:00,
2013-03-16 09:45:00,21.6,21.6,28.91,North,11,6.0,13.0,100,0.00,,,0.00,VWS V14.01,2013-03-16 14:45:00,
2013-03-16 09:50:00,21.6,21.6,28.91,North,4,8.0,10.0,100,0.00,,,0.00,VWS V14.01,2013-03-16 14:50:00,
2013-03-16 09:55:00,21.7,21.7,28.91,NNE,20,6.0,11.0,100,0.00,,,0.00,VWS V14.01,2013-03-16 14:55:00,
2013-03-16 10:00:00,21.6,21.6,28.91,North,8,3.0,10.0,100,0.00,,,0.00,VWS V14.01,2013-03-16 15:00:00,
2013-03-16 10:05:00,21.8,21.8,28.91,North,3,6.0,11.0,100,0.00,,,0.00,VWS V14.01,2013-03-16 15:05:00,
2013-03-16 10:10:00,21.9,21.9,28.92,North,349,7.0,9.0,100,0.00,,,0.00,VWS V14.01,2013-03-16 15:10:00,
2013-03-16 10:15:00,22.2,22.2,28.92,North,3,6.0,10.0,100,0.00,,,0.00,VWS V14.01,2013-03-16 15:15:00,
2013-03-16 10:20:00,22.4,22.4,28.92,North,1,3.0,5.0,100,0.00,,,0.00,VWS V14.01,2013-03-16 15:20:00,
2013-03-16 10:25:00,22.6,22.6,28.92,North,3,4.0,7.0,100,0.00,,,0.00,VWS V14.01,2013-03-16 15:25:00,
2013-03-16 10:30:00,22.8,22.8,28.92,NNW,345,7.0,9.0,100,0.00,,,0.00,VWS V14.01,2013-03-16 15:30:00,
2013-03-16 10:35:00,23.0,23.0,28.92,NNE,14,7.0,10.0,100,0.00,,,0.00,VWS V14.01,2013-03-16 15:35:00,
2013-03-16 10:40:00,23.1,23.1,28.92,North,349,6.0,7.0,100,0.00,,,0.00,VWS V14.01,2013-03-16 15:40:00,
2013-03-16 10:45:00,23.2,23.2,28.93,North,351,4.0,10.0,100,0.00,,,0.00,VWS V14.01,2013-03-16 15:45:00,
2013-03-16 10:50:00,23.3,23.3,28.93,North,357,4.0,4.0,100,0.00,,,0.00,VWS V14.01,2013-03-16 15:50:00,
2013-03-16 10:55:00,23.3,23.3,28.94,North,1,7.0,10.0,100,0.00,,,0.00,VWS V14.01,2013-03-16 15:55:00,
2013-03-16 11:00:00,23.2,23.2,28.94,NNE,12,5.0,6.0,100,0.00,,,0.00,VWS V14.01,2013-03-16 16:00:00,
2013-03-16 11:05:00,23.4,23.4,28.94,North,359,5.0,8.0,100,0.00,,,0.00,VWS V14.01,2013-03-16 16:05:00,
2013-03-16 11:10:00,23.6,23.6,28.94,North,1,3.0,4.0,100,0.00,,,0.00,VWS V14.01,2013-03-16 16:10:00,
2013-03-16 11:15:00,23.8,23.8,28.94,NNE,20,2.0,8.0,100,0.00,,,0.00,VWS V14.01,2013-03-16 16:15:00,
2013-03-16 11:20:00,23.8,23.8,28.94,North,1,6.0,6.0,100,0.00,,,0.00,VWS V14.01,2013-03-16 16:20:00,
2013-03-16 11:25:00,24.1,24.1,28.95,North,349,7.0,8.0,100,0.00,,,0.00,VWS V14.01,2013-03-16 16:25:00,
2013-03-16 11:30:00,24.2,24.2,28.95,NNE,19,4.0,4.0,100,0.00,,,0.00,VWS V14.01,2013-03-16 16:30:00,
2013-03-16 11:35:00,24.5,24.5,28.95,North,359,3.0,9.0,100,0.00,,,0.00,VWS V14.01,2013-03-16 16:35:00,
2013-03-16 11:40:00,24.8,24.8,28.95,North,5,6.0,6.0,100,0.00,,,0.00,VWS V14.01,2013-03-16 16:40:00,
2013-03-16 11:45:00,24.8,24.8,28.95,North,2,5.0,8.0,100,0.00,,,0.00,VWS V14.01,2013-03-16 16:45:00,
2013-03-16 11:50:00,24.9,24.9,28.95,North,2,4.0,5.0,100,0.00,,,0.00,VWS V14.01,2013-03-16 16:50:00,
2013-03-16 11:55:00,25.1,25.1,28.95,North,3,6.0,8.0,100,0.00,,,0.00,VWS V14.01,2013-03-16 16:55:00,
2013-03-16 12:00:00,24.9,24.9,28.95,North,0,5.0,7.0,100,0.00,,,0.00,VWS V14.01,2013-03-16 17:00:00,
2013-03-16 12:05:00,25.1,25.1,28.95,North,11,1.0,9.0,100,0.00,,,0.00,VWS V14.01,2013-03-16 17:05:00,
2013-03-16 12:10:00,25.4,25.4,28.95,North,356,4.0,7.0,100,0.00,,,0.00,VWS V14.01,2013-03-16 17:10:00,
2013-03-16 12:15:00,25.4,25.4,28.95,NNE,13,3.0,9.0,100,0.00,,,0.00,VWS V14.01,2013-03-16 17:15:00,
2013-03-16 12:20:00,25.7,25.7,28.96,North,3,6.0,7.0,100,0.00,,,0.00,VWS V14.01,2013-03-16 17:20:00,
2013-03-16 12:25:00,25.7,25.7,28.95,North,11,3.0,8.0,100,0.00,,,0.00,VWS V14.01,2013-03-16 17:25:00,
2013-03-16 12:30:00,26.1,26.1,28.95,NNE,14,5.0,7.0,100,0.00,,,0.00,VWS V14.01,2013-03-16 17:30:00,
2013-03-16 12:35:00,26.2,26.2,28.95,North,3,5.0,9.0,100,0.00,,,0.00,VWS V14.01,2013-03-16 17:35:00,
2013-03-16 12:40:00,26.7,26.7,28.95,North,7,5.0,6.0,100,0.00,,,0.00,VWS V14.01,2013-03-16 17:40:00,
2013-03-16 12:45:00,26.7,26.7,28.95,North,0,4.0,7.0,100,0.00,,,0.00,VWS V14.01,2013-03-16 17:45:00,
2013-03-16 12:50:00,27.1,27.1,28.96,NNE,15,2.0,4.0,100,0.00,,,0.00,VWS V14.01,2013-03-16 17:50:00,
2013-03-16 12:55:00,27.3,27.3,28.95,North,4,1.0,5.0,100,0.00,,,0.00,VWS V14.01,2013-03-16 17:55:00,
2013-03-16 13:00:00,28.0,28.0,28.95,North,0,1.0,2.0,100,0.00,,,0.00,VWS V14.01,2013-03-16 18:00:00,
2013-03-16 13:05:00,28.2,28.2,28.96,NNE,12,3.0,6.0,100,0.00,,,0.00,VWS V14.01,2013-03-16 18:05:00,
2013-03-16 13:10:00,28.3,28.3,28.96,North,1,4.0,5.0,100,0.00,,,0.00,VWS V14.01,2013-03-16 18:10:00,
2013-03-16 13:15:00,28.4,28.4,28.96,North,0,0.0,5.0,100,0.00,,,0.00,VWS V14.01,2013-03-16 18:15:00,
2013-03-16 13:20:00,28.9,28.9,28.95,NE,46,0.0,0.0,100,0.00,,,0.00,VWS V14.01,2013-03-16 18:20:00,
2013-03-16 13:25:00,29.1,29.1,28.95,North,9,0.0,5.0,100,0.00,,,0.00,VWS V14.01,2013-03-16 18:25:00,
2013-03-16 13:30:00,29.3,29.3,28.95,NNE,13,1.0,3.0,100,0.00,,,0.00,VWS V14.01,2013-03-16 18:30:00,
2013-03-16 13:35:00,29.3,29.3,28.95,WNW,302,2.0,6.0,100,0.00,,OVC016,0.00,VWS V14.01,2013-03-16 18:35:00,
2013-03-16 13:40:00,29.5,29.5,28.95,NNE,12,1.0,4.0,100,0.00,,OVC016,0.00,VWS V14.01,2013-03-16 18:40:00,
2013-03-16 13:45:00,30.1,30.1,28.95,North,354,0.0,4.0,100,0.00,,OVC016,0.00,VWS V14.01,2013-03-16 18:45:00,
2013-03-16 13:50:00,30.2,30.2,28.95,North,1,4.0,4.0,100,0.00,,OVC016,0.00,VWS V14.01,2013-03-16 18:50:00,
2013-03-16 13:55:00,30.4,30.4,28.95,WNW,296,7.0,7.0,100,0.00,,OVC016,0.00,VWS V14.01,2013-03-16 18:55:00,
2013-03-16 14:00:00,30.2,30.2,28.95,North,2,3.0,4.0,100,0.00,,OVC016,0.00,VWS V14.01,2013-03-16 19:00:00,
2013-03-16 14:05:00,30.3,30.3,28.95,North,1,3.0,7.0,100,0.00,,OVC016,0.00,VWS V14.01,2013-03-16 19:05:00,
2013-03-16 14:10:00,30.5,30.5,28.95,NNW,340,3.0,7.0,100,0.00,,OVC016,0.00,VWS V14.01,2013-03-16 19:10:00,
2013-03-16 14:15:00,30.5,30.5,28.96,NNW,344,5.0,7.0,100,0.00,,OVC016,0.00,VWS V14.01,2013-03-16 19:15:00,
2013-03-16 14:20:00,30.6,30.6,28.95,North,352,6.0,7.0,100,0.00,,OVC016,0.00,VWS V14.01,2013-03-16 19:20:00,
2013-03-16 14:25:00,30.5,30.5,28.95,NNW,327,8.0,9.0,100,0.00,,OVC016,0.00,VWS V14.01,2013-03-16 19:25:00,
2013-03-16 14:30:00,30.3,30.3,28.95,North,355,4.0,6.0,100,0.00,,OVC016,0.00,VWS V14.01,2013-03-16 19:30:00,
2013-03-16 14:35:00,29.8,29.8,28.96,NW,312,8.0,12.0,100,0.00,,OVC033,0.00,VWS V14.01,2013-03-16 19:35:00,
2013-03-16 14:40:00,29.4,29.4,28.96,NNW,331,6.0,8.0,100,0.00,,OVC033,0.00,VWS V14.01,2013-03-16 19:40:00,
2013-03-16 14:45:00,29.5,29.5,28.96,NNE,13,4.0,9.0,100,0.00,,OVC033,0.00,VWS V14.01,2013-03-16 19:45:00,
2013-03-16 14:50:00,29.6,29.6,28.95,North,355,5.0,9.0,100,0.00,,OVC033,0.00,VWS V14.01,2013-03-16 19:50:00,
2013-03-16 14:55:00,29.6,29.6,28.95,North,356,3.0,12.0,100,0.00,,OVC033,0.00,VWS V14.01,2013-03-16 19:55:00,
2013-03-16 15:00:00,29.6,29.6,28.95,NNW,334,9.0,9.0,100,0.00,,OVC033,0.00,VWS V14.01,2013-03-16 20:00:00,
2013-03-16 15:05:00,29.6,29.6,28.95,North,349,4.0,11.0,100,0.00,,OVC033,0.00,VWS V14.01,2013-03-16 20:05:00,
2013-03-16 15:10:00,29.6,29.6,28.95,NNW,338,8.0,10.0,100,0.00,,OVC033,0.00,VWS V14.01,2013-03-16 20:10:00,
2013-03-16 15:15:00,29.5,29.5,28.95,North,1,6.0,10.0,100,0.00,,OVC033,0.00,VWS V14.01,2013-03-16 20:15:00,
2013-03-16 15:20:00,29.5,29.5,28.95,North,6,6.0,8.0,100,0.00,,OVC033,0.00,VWS V14.01,2013-03-16 20:20:00,
2013-03-16 15:25:00,29.4,29.4,28.96,North,3,3.0,10.0,100,0.00,,OVC033,0.00,VWS V14.01,2013-03-16 20:25:00,
2013-03-16 15:30:00,29.5,29.5,28.96,North,3,5.0,8.0,100,0.00,,OVC033,0.00,VWS V14.01,2013-03-16 20:30:00,
2013-03-16 15:35:00,29.5,29.5,28.96,NW,304,7.0,8.0,100,0.00,,OVC033,0.00,VWS V14.01,2013-03-16 20:35:00,
2013-03-16 15:40:00,29.5,29.5,28.95,NNW,340,7.0,8.0,100,0.00,,OVC033,0.00,VWS V14.01,2013-03-16 20:40:00,
2013-03-16 15:45:00,29.5,29.5,28.95,NNW,329,5.0,11.0,100,0.00,,OVC033,0.00,VWS V14.01,2013-03-16 20:45:00,
2013-03-16 15:50:00,29.6,29.6,28.95,North,2,2.0,5.0,100,0.00,,OVC033,0.00,VWS V14.01,2013-03-16 20:50:00,
2013-03-16 15:55:00,29.5,29.5,28.95,North,358,3.0,11.0,100,0.00,,OVC033,0.00,VWS V14.01,2013-03-16 20:55:00,
2013-03-16 16:00:00,29.5,29.5,28.95,North,359,4.0,6.0,100,0.00,,OVC033,0.00,VWS V14.01,2013-03-16 21:00:00,
2013-03-16 16:05:00,29.6,29.6,28.95,North,355,4.0,6.0,100,0.00,,OVC033,0.00,VWS V14.01,2013-03-16 21:05:00,
2013-03-16 16:10:00,29.5,29.5,28.95,North,1,1.0,7.0,100,0.00,,OVC033,0.00,VWS V14.01,2013-03-16 21:10:00,
2013-03-16 16:15:00,29.6,29.6,28.95,NNW,345,7.0,11.0,100,0.00,,OVC033,0.00,VWS V14.01,2013-03-16 21:15:00,
2013-03-16 16:20:00,29.5,29.5,28.95,North,6,7.0,7.0,100,0.00,,OVC033,0.00,VWS V14.01,2013-03-16 21:20:00,
2013-03-16 16:25:00,29.6,29.6,28.95,North,355,6.0,9.0,100,0.00,,OVC033,0.00,VWS V14.01,2013-03-16 21:25:00,
2013-03-16 16:30:00,29.5,29.5,28.95,NNW,340,7.0,13.0,100,0.00,,OVC033,0.00,VWS V14.01,2013-03-16 21:30:00,
2013-03-16 16:35:00,29.5,29.5,28.95,NNW,347,7.0,13.0,100,0.00,,OVC029,0.00,VWS V14.01,2013-03-16 21:35:00,
2013-03-16 16:40:00,29.5,29.5,28.95,North,356,6.0,6.0,100,0.00,,OVC029,0.00,VWS V14.01,2013-03-16 21:40:00,
2013-03-16 16:45:00,29.5,29.5,28.95,NNW,329,4.0,10.0,100,0.00,,OVC029,0.00,VWS V14.01,2013-03-16 21:45:00,
2013-03-16 16:50:00,29.4,29.4,28.95,NW,325,5.0,6.0,100,0.00,,OVC029,0.00,VWS V14.01,2013-03-16 21:50:00,
2013-03-16 16:55:00,29.6,29.6,28.95,North,5,4.0,7.0,100,0.00,,OVC029,0.00,VWS V14.01,2013-03-16 21:55:00,
2013-03-16 17:00:00,29.7,29.7,28.95,North,358,5.0,6.0,100,0.00,,OVC029,0.00,VWS V14.01,2013-03-16 22:00:00,
2013-03-16 17:05:00,29.6,29.6,28.95,NNW,334,9.0,10.0,100,0.00,,OVC029,0.00,VWS V14.01,2013-03-16 22:05:00,
2013-03-16 17:10:00,29.4,29.4,28.95,North,357,4.0,7.0,100,0.00,,OVC029,0.00,VWS V14.01,2013-03-16 22:10:00,
2013-03-16 17:15:00,29.3,29.3,28.95,NNW,348,2.0,9.0,100,0.00,,OVC029,0.00,VWS V14.01,2013-03-16 22:15:00,
2013-03-16 17:20:00,29.3,29.3,28.95,NNW,343,2.0,6.0,100,0.00,,OVC029,0.00,VWS V14.01,2013-03-16 22:20:00,
2013-03-16 17:25:00,29.3,29.3,28.96,North,352,7.0,7.0,100,0.00,,OVC029,0.00,VWS V14.01,2013-03-16 22:25:00,
2013-03-16 17:30:00,29.1,29.1,28.96,North,5,5.0,8.0,100,0.00,,OVC029,0.00,VWS V14.01,2013-03-16 22:30:00,
2013-03-16 17:35:00,28.9,28.9,28.96,NNW,336,7.0,10.0,100,0.00,,OVC027,0.00,VWS V14.01,2013-03-16 22:35:00,
2013-03-16 17:40:00,28.8,28.8,28.96,NNW,333,3.0,6.0,100,0.00,,OVC027,0.00,VWS V14.01,2013-03-16 22:40:00,
2013-03-16 17:45:00,28.7,28.7,28.96,North,356,1.0,8.0,100,0.00,,OVC027,0.00,VWS V14.01,2013-03-16 22:45:00,
2013-03-16 17:50:00,28.7,28.7,28.96,NW,311,8.0,8.0,100,0.00,,OVC027,0.00,VWS V14.01,2013-03-16 22:50:00,
2013-03-16 17:55:00,28.6,28.6,28.96,NNW,334,4.0,10.0,100,0.00,,OVC027,0.00,VWS V14.01,2013-03-16 22:55:00,
2013-03-16 18:00:00,28.5,28.5,28.96,North,350,3.0,4.0,100,0.00,,OVC027,0.00,VWS V14.01,2013-03-16 23:00:00,
2013-03-16 18:05:00,28.5,28.5,28.96,North,349,2.0,7.0,100,0.00,,OVC027,0.00,VWS V14.01,2013-03-16 23:05:00,
2013-03-16 18:10:00,28.5,28.5,28.96,WNW,302,3.0,4.0,100,0.00,,OVC027,0.00,VWS V14.01,2013-03-16 23:10:00,
2013-03-16 18:15:00,28.3,28.3,28.96,North,5,4.0,6.0,100,0.00,,OVC027,0.00,VWS V14.01,2013-03-16 23:15:00,
2013-03-16 18:20:00,28.3,28.3,28.96,North,352,3.0,5.0,100,0.00,,OVC027,0.00,VWS V14.01,2013-03-16 23:20:00,
2013-03-16 18:25:00,28.2,28.2,28.96,NW,314,3.0,6.0,100,0.00,,OVC027,0.00,VWS V14.01,2013-03-16 23:25:00,
2013-03-16 18:30:00,28.1,28.1,28.96,North,6,3.0,4.0,100,0.00,,OVC027,0.00,VWS V14.01,2013-03-16 23:30:00,
2013-03-16 18:35:00,28.0,28.0,28.96,NNW,344,4.0,5.0,100,0.00,,OVC031,0.00,VWS V14.01,2013-03-16 23:35:00,
2013-03-16 18:40:00,28.0,28.0,28.96,NNW,345,0.0,1.0,100,0.00,,OVC031,0.00,VWS V14.01,2013-03-16 23:40:00,
2013-03-16 18:45:00,27.9,27.9,28.96,NNW,345,1.0,3.0,100,0.00,,OVC031,0.00,VWS V14.01,2013-03-16 23:45:00,
2013-03-16 18:50:00,27.9,27.9,28.96,NNW,345,0.0,0.0,100,0.00,,OVC031,0.00,VWS V14.01,2013-03-16 23:50:00,
2013-03-16 18:55:00,27.9,27.9,28.96,NNW,345,0.0,0.0,100,0.00,,OVC031,0.00,VWS V14.01,2013-03-16 23:55:00,
2013-03-16 19:00:00,27.9,27.9,28.97,NNW,345,0.0,1.0,100,0.00,,OVC031,0.00,VWS V14.01,2013-03-17 00:00:00,
2013-03-16 19:05:00,27.8,27.8,28.96,NNW,345,1.0,3.0,100,0.00,,OVC031,0.00,VWS V14.01,2013-03-17 00:05:00,
2013-03-16 19:10:00,27.7,27.7,28.97,NNW,328,4.0,4.0,100,0.00,,OVC031,0.00,VWS V14.01,2013-03-17 00:10:00,
2013-03-16 19:15:00,27.6,27.6,28.97,West,275,3.0,7.0,100,0.00,,OVC031,0.00,VWS V14.01,2013-03-17 00:15:00,
2013-03-16 19:20:00,27.5,27.5,28.97,NW,307,2.0,3.0,100,0.00,,OVC031,0.00,VWS V14.01,2013-03-17 00:20:00,
2013-03-16 19:25:00,27.4,27.4,28.97,West,276,2.0,5.0,100,0.00,,OVC031,0.00,VWS V14.01,2013-03-17 00:25:00,
2013-03-16 19:30:00,27.3,27.3,28.96,NW,310,3.0,4.0,100,0.00,,OVC031,0.00,VWS V14.01,2013-03-17 00:30:00,
2013-03-16 19:35:00,27.2,27.2,28.97,WNW,283,5.0,6.0,100,0.00,,OVC031,0.00,VWS V14.01,2013-03-17 00:35:00,
2013-03-16 19:40:00,27.0,27.0,28.97,WNW,303,3.0,5.0,100,0.00,,OVC031,0.00,VWS V14.01,2013-03-17 00:40:00,
2013-03-16 19:45:00,26.9,26.9,28.97,WNW,293,3.0,5.0,100,0.00,,OVC031,0.00,VWS V14.01,2013-03-17 00:45:00,
2013-03-16 19:50:00,26.8,26.8,28.98,WNW,282,2.0,4.0,100,0.00,,OVC031,0.00,VWS V14.01,2013-03-17 00:50:00,
2013-03-16 19:55:00,26.6,26.6,28.98,WNW,291,1.0,4.0,100,0.00,,OVC031,0.00,VWS V14.01,2013-03-17 00:55:00,
2013-03-16 20:00:00,26.6,26.6,28.99,NW,310,3.0,3.0,100,0.00,,OVC031,0.00,VWS V14.01,2013-03-17 01:00:00,
2013-03-16 20:05:00,26.5,26.5,28.99,WNW,292,2.0,5.0,100,0.00,,OVC031,0.00,VWS V14.01,2013-03-17 01:05:00,
2013-03-16 20:10:00,26.5,26.5,29.00,WNW,292,4.0,5.0,100,0.00,,OVC031,0.00,VWS V14.01,2013-03-17 01:10:00,
2013-03-16 20:15:00,26.5,26.5,29.00,NW,313,5.0,7.0,100,0.00,,OVC031,0.00,VWS V14.01,2013-03-17 01:15:00,
2013-03-16 20:20:00,26.5,26.5,29.00,West,281,3.0,4.0,100,0.00,,OVC031,0.00,VWS V14.01,2013-03-17 01:20:00,
2013-03-16 20:25:00,26.5,26.5,29.01,West,275,4.0,5.0,100,0.00,,OVC031,0.00,VWS V14.01,2013-03-17 01:25:00,
2013-03-16 20:30:00,26.5,26.5,29.00,WNW,297,3.0,4.0,100,0.00,,OVC031,0.00,VWS V14.01,2013-03-17 01:30:00,
2013-03-16 20:35:00,26.5,26.5,29.01,NW,306,4.0,6.0,100,0.00,,OVC031,0.00,VWS V14.01,2013-03-17 01:35:00,
2013-03-16 20:40:00,26.5,26.5,29.01,WNW,300,6.0,7.0,100,0.00,,OVC031,0.00,VWS V14.01,2013-03-17 01:40:00,
2013-03-16 20:45:00,26.5,26.5,29.01,NW,305,3.0,7.0,100,0.00,,OVC031,0.00,VWS V14.01,2013-03-17 01:45:00,
2013-03-16 20:50:00,26.6,26.6,29.01,NW,312,4.0,4.0,100,0.00,,OVC031,0.00,VWS V14.01,2013-03-17 01:50:00,
2013-03-16 20:55:00,26.6,26.6,29.02,NW,304,4.0,7.0,100,0.00,,OVC031,0.00,VWS V14.01,2013-03-17 01:55:00,
2013-03-16 21:00:00,26.6,26.6,29.02,NNW,340,5.0,6.0,100,0.00,,OVC031,0.00,VWS V14.01,2013-03-17 02:00:00,
2013-03-16 21:05:00,26.6,26.6,29.02,NW,304,5.0,10.0,100,0.00,,OVC031,0.00,VWS V14.01,2013-03-17 02:05:00,
2013-03-16 21:10:00,26.6,26.6,29.02,NW,310,6.0,6.0,100,0.00,,OVC031,0.00,VWS V14.01,2013-03-17 02:10:00,
2013-03-16 21:15:00,26.5,26.5,29.01,NW,323,4.0,9.0,100,0.00,,OVC031,0.00,VWS V14.01,2013-03-17 02:15:00,
2013-03-16 21:20:00,26.5,26.5,29.02,WNW,300,5.0,7.0,100,0.00,,OVC031,0.00,VWS V14.01,2013-03-17 02:20:00,
2013-03-16 21:25:00,26.4,26.4,29.02,WNW,300,7.0,11.0,100,0.00,,OVC031,0.00,VWS V14.01,2013-03-17 02:25:00,
2013-03-16 21:30:00,26.2,26.2,29.02,WNW,292,5.0,6.0,100,0.00,,OVC031,0.00,VWS V14.01,2013-03-17 02:30:00,
2013-03-16 21:35:00,26.1,26.1,29.02,NW,313,6.0,10.0,100,0.00,,BKN031,0.00,VWS V14.01,2013-03-17 02:35:00,
2013-03-16 21:40:00,26.0,26.0,29.02,NW,309,4.0,6.0,100,0.00,,BKN031,0.00,VWS V14.01,2013-03-17 02:40:00,
2013-03-16 21:45:00,25.9,25.9,29.03,WNW,294,5.0,9.0,100,0.00,,BKN031,0.00,VWS V14.01,2013-03-17 02:45:00,
2013-03-16 21:50:00,25.7,25.7,29.03,NW,310,7.0,9.0,100,0.00,,BKN031,0.00,VWS V14.01,2013-03-17 02:50:00,
2013-03-16 21:55:00,25.6,25.6,29.03,NNW,330,6.0,13.0,100,0.00,,BKN031,0.00,VWS V14.01,2013-03-17 02:55:00,
2013-03-16 22:00:00,25.4,25.4,29.03,NW,310,2.0,5.0,100,0.00,,BKN031,0.00,VWS V14.01,2013-03-17 03:00:00,
2013-03-16 22:05:00,25.3,25.3,29.03,NNW,328,4.0,9.0,100,0.00,,BKN031,0.00,VWS V14.01,2013-03-17 03:05:00,
2013-03-16 22:10:00,25.2,25.2,29.03,NW,323,6.0,8.0,100,0.00,,BKN031,0.00,VWS V14.01,2013-03-17 03:10:00,
2013-03-16 22:15:00,25.1,25.1,29.03,NNW,335,7.0,8.0,100,0.00,,BKN031,0.00,VWS V14.01,2013-03-17 03:15:00,
2013-03-16 22:20:00,25.0,25.0,29.04,NW,317,5.0,6.0,100,0.00,,BKN031,0.00,VWS V14.01,2013-03-17 03:20:00,
2013-03-16 22:25:00,25.0,25.0,29.04,NNW,328,4.0,9.0,100,0.00,,BKN031,0.00,VWS V14.01,2013-03-17 03:25:00,
2013-03-16 22:30:00,24.9,24.9,29.04,NW,311,5.0,6.0,100,0.00,,BKN031,0.00,VWS V14.01,2013-03-17 03:30:00,
2013-03-16 22:35:00,24.8,24.8,29.04,North,351,2.0,6.0,100,0.00,,OVC031,0.00,VWS V14.01,2013-03-17 03:35:00,
2013-03-16 22:40:00,24.7,24.7,29.04,NW,318,5.0,5.0,100,0.00,,OVC031,0.00,VWS V14.01,2013-03-17 03:40:00,
2013-03-16 22:45:00,24.7,24.7,29.04,NW,316,4.0,6.0,100,0.00,,OVC031,0.00,VWS V14.01,2013-03-17 03:45:00,
2013-03-16 22:50:00,24.6,24.6,29.05,NW,318,3.0,4.0,100,0.00,,OVC031,0.00,VWS V14.01,2013-03-17 03:50:00,
2013-03-16 22:55:00,24.5,24.5,29.05,WNW,296,3.0,5.0,100,0.00,,FEW029,0.00,VWS V14.01,2013-03-17 03:55:00,
2013-03-16 23:00:00,24.5,24.5,29.05,West,281,2.0,3.0,100,0.00,,FEW029,0.00,VWS V14.01,2013-03-17 04:00:00,
2013-03-16 23:05:00,24.4,24.4,29.05,WSW,255,3.0,5.0,100,0.00,,FEW029,0.00,VWS V14.01,2013-03-17 04:05:00,
2013-03-16 23:10:00,24.3,24.3,29.05,West,259,2.0,4.0,100,0.00,,FEW029,0.00,VWS V14.01,2013-03-17 04:10:00,
2013-03-16 23:15:00,24.3,24.3,29.05,West,270,3.0,4.0,100,0.00,,FEW029,0.00,VWS V14.01,2013-03-17 04:15:00,
2013-03-16 23:20:00,24.2,24.2,29.05,WNW,296,2.0,3.0,100,0.00,,FEW029,0.00,VWS V14.01,2013-03-17 04:20:00,
2013-03-16 23:25:00,24.1,24.1,29.06,WNW,283,3.0,5.0,100,0.00,,FEW029,0.00,VWS V14.01,2013-03-17 04:25:00,
2013-03-16 23:30:00,24.0,24.0,29.06,WNW,284,4.0,4.0,100,0.00,,FEW029,0.00,VWS V14.01,2013-03-17 04:30:00,
2013-03-16 23:35:00,24.0,24.0,29.06,WNW,291,4.0,5.0,100,0.00,,CLR,0.00,VWS V14.01,2013-03-17 04:35:00,
2013-03-16 23:40:00,23.9,23.9,29.06,WNW,295,4.0,5.0,100,0.00,,CLR,0.00,VWS V14.01,2013-03-17 04:40:00,
2013-03-16 23:45:00,23.9,23.9,29.06,WNW,299,2.0,6.0,100,0.00,,CLR,0.00,VWS V14.01,2013-03-17 04:45:00,
2013-03-16 23:50:00,23.8,23.8,29.05,NW,319,3.0,4.0,100,0.00,,CLR,0.00,VWS V14.01,2013-03-17 04:50:00,
2013-03-16 23:55:00,23.8,23.8,29.06,NW,324,3.0,6.0,100,0.00,,CLR,0.00,VWS V14.01,2013-03-17 04:55:00,